Time;durP1;ratioP1;P1;durP2;ratioP2;P2;SDS_P1;SDS_P2;PMS_P1;PMS_P2;Temp;Humidity;BMP_temperature;BMP_pressure;BME280_temperature;BME280_humidity;BME280_pressure;Samples;Min_cycle;Max_cycle;Signal;HPM_P1;HPM_P2
2023/03/09 00:00:56;;;;;;;2.10;1.50;;;;;;;9.00;40.00;93210.84;5017542;28;20037;-75
2023/03/09 00:03:22;;;;;;;2.00;1.58;;;;;;;9.06;39.92;93203.50;5017754;28;20037;-74
2023/03/09 00:05:56;;;;;;;2.95;1.35;;;;;;;9.00;39.51;93174.50;5017177;28;20030;-74
2023/03/09 00:08:21;;;;;;;3.20;1.45;;;;;;;8.97;38.70;93137.25;5016585;28;20369;-75
2023/03/09 00:10:51;;;;;;;1.55;1.15;;;;;;;9.04;39.51;93174.66;5017265;28;20489;-75
2023/03/09 00:13:17;;;;;;;1.58;1.30;;;;;;;8.91;39.29;93183.59;5016057;28;20036;-74
2023/03/09 00:15:44;;;;;;;6.70;4.47;;;;;;;8.09;41.79;93163.47;5013915;28;20412;-74
2023/03/09 00:18:10;;;;;;;7.85;5.55;;;;;;;8.49;41.68;93174.66;5015820;28;20030;-74
2023/03/09 00:20:37;;;;;;;10.57;7.32;;;;;;;7.37;44.88;93209.00;5016272;28;20136;-74
2023/03/09 00:23:08;;;;;;;11.68;7.32;;;;;;;8.16;43.81;93211.47;5020356;28;20025;-75
2023/03/09 00:25:33;;;;;;;14.90;7.53;;;;;;;7.28;45.35;93216.91;5021099;28;20053;-74
2023/03/09 00:27:59;;;;;;;10.98;6.65;;;;;;;7.34;45.46;93201.66;5018778;28;20046;-76
2023/03/09 00:30:24;;;;;;;7.97;6.40;;;;;;;7.20;45.53;93182.47;5020667;28;20049;-74
2023/03/09 00:32:52;;;;;;;9.68;6.32;;;;;;;7.20;46.40;93198.34;5020988;28;20050;-75
2023/03/09 00:35:18;;;;;;;8.68;5.43;;;;;;;7.19;45.52;93178.31;5017421;28;20033;-75
2023/03/09 00:37:43;;;;;;;10.75;7.00;;;;;;;6.98;46.50;93211.66;5020878;28;20033;-75
2023/03/09 00:40:10;;;;;;;10.73;5.80;;;;;;;5.76;49.21;93174.97;5018705;28;20497;-75
2023/03/09 00:42:41;;;;;;;7.47;5.40;;;;;;;6.22;48.55;93168.63;5021771;28;20088;-75
2023/03/09 00:45:07;;;;;;;9.00;6.28;;;;;;;6.97;46.63;93155.34;5010174;28;20311;-76
2023/03/09 00:47:32;;;;;;;9.02;6.25;;;;;;;7.12;46.52;93164.72;5021059;28;20124;-74
2023/03/09 00:49:58;;;;;;;8.90;6.43;;;;;;;7.65;45.55;93183.06;5022969;28;20103;-76
2023/03/09 00:52:23;;;;;;;8.90;5.18;;;;;;;7.16;45.83;93160.38;5022399;28;20030;-75
2023/03/09 00:54:52;;;;;;;7.63;6.05;;;;;;;5.92;48.96;93181.44;5021835;28;20462;-76
2023/03/09 00:57:19;;;;;;;6.90;5.47;;;;;;;6.22;48.79;93163.34;5020333;28;20042;-77
2023/03/09 00:59:45;;;;;;;8.23;4.88;;;;;;;7.03;46.71;93169.22;5021819;28;20042;-75
2023/03/09 01:02:10;;;;;;;8.70;5.53;;;;;;;6.86;47.15;93178.63;5022086;28;20065;-76
2023/03/09 01:04:36;;;;;;;7.30;5.32;;;;;;;6.26;47.98;93143.22;5008615;28;20022;-76
2023/03/09 01:07:01;;;;;;;7.85;5.38;;;;;;;6.83;47.10;93173.97;5022261;28;20038;-76
2023/03/09 01:09:27;;;;;;;8.45;5.28;;;;;;;7.15;47.16;93179.97;5002515;28;20030;-75
2023/03/09 01:11:52;;;;;;;10.77;6.65;;;;;;;7.11;46.80;93179.03;5017409;28;20038;-75
2023/03/09 01:14:17;;;;;;;12.65;7.40;;;;;;;5.70;49.77;93157.69;5021870;28;20025;-76
2023/03/09 01:16:43;;;;;;;11.80;8.68;;;;;;;6.30;48.39;93138.88;5004300;28;20029;-76
2023/03/09 01:19:08;;;;;;;20.45;11.60;;;;;;;5.72;50.46;93155.53;5020553;28;20957;-76
2023/03/09 01:21:33;;;;;;;16.25;8.43;;;;;;;6.58;48.45;93150.84;5021208;28;20033;-76
2023/03/09 01:23:59;;;;;;;14.18;8.10;;;;;;;6.91;47.97;93147.84;5020903;28;20492;-76
2023/03/09 01:26:24;;;;;;;11.77;6.82;;;;;;;7.39;47.02;93159.19;5022372;28;20470;-76
2023/03/09 01:28:49;;;;;;;13.40;8.07;;;;;;;6.97;47.03;93162.50;5023900;28;20278;-75
2023/03/09 01:31:15;;;;;;;12.18;7.22;;;;;;;6.36;49.00;93164.09;5020626;28;20319;-75
2023/03/09 01:33:42;;;;;;;12.48;7.53;;;;;;;7.06;47.45;93147.44;5007084;28;20038;-75
2023/03/09 01:36:12;;;;;;;12.43;7.13;;;;;;;7.51;46.64;93150.66;5024946;28;20101;-77
2023/03/09 01:38:37;;;;;;;11.27;6.32;;;;;;;7.79;46.02;93151.19;5022026;28;20050;-75
2023/03/09 01:41:03;;;;;;;7.72;5.35;;;;;;;7.90;45.41;93134.69;5026949;28;20112;-76
2023/03/09 01:43:43;;;;;;;10.57;6.28;;;;;;;8.11;44.92;93134.81;5020483;28;20509;-76
2023/03/09 01:46:29;;;;;;;6.85;5.10;;;;;;;6.39;48.36;93123.84;5019431;28;20053;-74
2023/03/09 01:49:04;;;;;;;7.68;5.18;;;;;;;7.00;47.25;93130.16;5017824;28;20172;-74
2023/03/09 01:51:36;;;;;;;10.73;6.40;;;;;;;6.43;48.30;93111.59;5018682;28;20064;-75
2023/03/09 01:54:05;;;;;;;10.25;5.85;;;;;;;6.90;47.74;93098.75;5021039;28;20041;-75
2023/03/09 01:56:31;;;;;;;10.82;6.03;;;;;;;7.34;46.34;93098.50;5024029;28;20025;-74
2023/03/09 01:58:58;;;;;;;11.75;5.93;;;;;;;6.98;47.50;93122.56;5018307;28;20018;-74
2023/03/09 02:01:24;;;;;;;8.95;5.20;;;;;;;7.43;46.12;93107.25;5004235;28;20404;-76
2023/03/09 02:03:56;;;;;;;8.93;5.03;;;;;;;6.74;47.51;93124.78;5019337;28;20097;-74
2023/03/09 02:06:23;;;;;;;7.07;4.90;;;;;;;7.31;46.62;93130.88;5025690;28;20026;-76
2023/03/09 02:09:07;;;;;;;7.00;4.45;;;;;;;6.53;48.24;93132.47;5022403;28;20076;-76
2023/03/09 02:11:34;;;;;;;7.20;5.38;;;;;;;7.17;47.38;93146.09;5024099;28;20042;-76
2023/03/09 02:14:01;;;;;;;8.05;4.68;;;;;;;6.06;49.00;93123.34;5024934;28;20049;-76
2023/03/09 02:16:26;;;;;;;8.32;4.05;;;;;;;6.09;49.42;93133.28;5023002;28;20030;-75
2023/03/09 02:18:52;;;;;;;6.85;4.10;;;;;;;6.88;47.98;93159.03;5027668;28;20057;-76
2023/03/09 02:21:33;;;;;;;10.40;4.18;;;;;;;6.66;47.38;93123.66;5006828;28;20042;-76
2023/03/09 02:24:28;;;;;;;5.38;4.07;;;;;;;6.35;48.68;93136.91;5023683;28;20065;-76
2023/03/09 02:27:00;;;;;;;6.18;4.43;;;;;;;6.89;47.72;93129.69;5005812;28;20048;-76
2023/03/09 02:29:27;;;;;;;6.82;4.53;;;;;;;6.12;49.39;93142.44;5025480;28;20083;-77
2023/03/09 02:31:52;;;;;;;6.40;4.72;;;;;;;6.50;48.92;93145.50;5026055;28;20426;-76
2023/03/09 02:34:17;;;;;;;6.80;4.15;;;;;;;6.96;47.25;93139.78;5026484;28;20076;-75
2023/03/09 02:36:43;;;;;;;7.85;5.00;;;;;;;7.29;47.06;93154.19;5025037;28;20037;-76
2023/03/09 02:39:28;;;;;;;9.10;6.18;;;;;;;6.07;49.53;93138.06;5025157;28;20043;-76
2023/03/09 02:41:56;;;;;;;8.00;5.25;;;;;;;6.89;48.25;93150.03;5024605;28;20069;-76
2023/03/09 02:44:22;;;;;;;12.27;5.70;;;;;;;6.21;49.57;93156.53;5016281;28;20036;-75
2023/03/09 02:46:48;;;;;;;11.15;5.95;;;;;;;6.94;48.40;93155.19;5031413;28;20547;-76
2023/03/09 02:49:13;;;;;;;10.38;5.20;;;;;;;6.69;48.28;93138.94;5028510;28;20041;-76
2023/03/09 02:51:39;;;;;;;7.60;5.28;;;;;;;6.55;48.36;93119.75;5028262;28;20029;-77
2023/03/09 02:54:04;;;;;;;8.38;5.20;;;;;;;6.67;47.93;93101.44;5030894;28;20037;-76
2023/03/09 02:56:30;;;;;;;7.93;5.38;;;;;;;6.83;48.03;93134.31;5015786;28;20025;-76
2023/03/09 02:58:55;;;;;;;6.45;4.35;;;;;;;7.45;46.94;93147.38;5029844;28;20037;-75
2023/03/09 03:01:20;;;;;;;5.55;4.38;;;;;;;6.47;48.49;93154.81;5026970;28;20037;-76
2023/03/09 03:03:46;;;;;;;7.60;4.68;;;;;;;5.53;51.34;93160.94;5027230;28;20104;-75
2023/03/09 03:06:11;;;;;;;7.90;5.00;;;;;;;5.92;50.51;93170.13;5029166;28;20030;-76
2023/03/09 03:08:36;;;;;;;7.95;4.57;;;;;;;6.01;49.82;93131.38;5026057;28;20030;-76
2023/03/09 03:11:02;;;;;;;8.65;4.63;;;;;;;6.71;48.98;93160.53;5029887;28;20029;-75
2023/03/09 03:13:28;;;;;;;5.80;4.10;;;;;;;7.08;47.96;93143.41;5026004;28;20030;-75
2023/03/09 03:16:03;;;;;;;8.05;4.68;;;;;;;6.68;48.52;93139.22;5016810;28;20037;-74
2023/03/09 03:18:28;;;;;;;;;;;;;;;7.22;47.85;93175.81;5011754;28;20034;-76
2023/03/09 03:20:54;;;;;;;6.68;4.80;;;;;;;7.52;47.14;93179.47;5032436;28;20004;-76
2023/03/09 03:23:19;;;;;;;11.75;4.80;;;;;;;7.73;46.49;93175.16;5024778;28;20030;-75
2023/03/09 03:25:44;;;;;;;5.00;4.25;;;;;;;6.65;48.23;93151.16;5026662;28;20041;-75
2023/03/09 03:28:10;;;;;;;8.93;4.70;;;;;;;6.71;48.85;93165.81;5023097;28;20044;-75
2023/03/09 03:30:35;;;;;;;7.32;4.40;;;;;;;7.10;47.33;93148.38;5026225;28;20037;-75
2023/03/09 03:33:01;;;;;;;8.60;4.68;;;;;;;7.25;46.89;93159.31;5024650;28;20030;-75
2023/03/09 03:35:26;;;;;;;7.70;4.25;;;;;;;7.39;46.90;93183.00;5025554;28;20025;-75
2023/03/09 03:37:51;;;;;;;11.10;4.88;;;;;;;7.61;46.66;93172.31;5022001;28;20042;-74
2023/03/09 03:40:18;;;;;;;5.97;4.22;;;;;;;7.66;45.93;93158.94;5026108;28;20037;-75
2023/03/09 03:42:44;;;;;;;6.05;4.00;;;;;;;7.81;45.51;93149.00;5027510;28;20118;-74
2023/03/09 03:45:10;;;;;;;7.63;4.30;;;;;;;7.66;45.77;93174.03;5024483;28;20163;-75
2023/03/09 03:47:35;;;;;;;6.03;4.15;;;;;;;7.73;45.73;93181.56;5027294;28;20049;-75
2023/03/09 03:50:00;;;;;;;11.15;5.07;;;;;;;6.98;46.94;93158.78;5027792;28;20025;-76
2023/03/09 03:52:26;;;;;;;6.85;4.13;;;;;;;6.11;49.32;93164.66;5027092;28;20127;-75
2023/03/09 03:54:51;;;;;;;8.77;4.00;;;;;;;6.55;47.86;93140.09;5027493;28;20144;-76
2023/03/09 03:57:17;;;;;;;5.30;4.18;;;;;;;7.05;47.12;93164.38;5025206;28;20032;-76
2023/03/09 03:59:42;;;;;;;7.10;4.20;;;;;;;7.36;46.84;93170.41;5025989;28;20489;-75
2023/03/09 04:02:07;;;;;;;5.60;4.60;;;;;;;7.51;46.51;93162.03;5012995;28;20033;-75
2023/03/09 04:04:33;;;;;;;11.23;5.45;;;;;;;7.47;46.16;93139.94;5025727;28;20416;-74
2023/03/09 04:06:58;;;;;;;8.35;4.60;;;;;;;7.76;46.07;93172.97;5023003;28;20045;-75
2023/03/09 04:09:23;;;;;;;10.75;5.15;;;;;;;7.54;46.19;93161.41;5026252;28;20055;-75
2023/03/09 04:11:49;;;;;;;10.02;4.88;;;;;;;7.64;45.82;93155.03;5023813;28;20133;-75
2023/03/09 04:14:15;;;;;;;6.38;4.18;;;;;;;7.60;45.81;93152.22;5023817;28;20036;-75
2023/03/09 04:16:40;;;;;;;9.27;4.93;;;;;;;7.57;46.15;93144.91;5024285;28;20053;-75
2023/03/09 04:19:06;;;;;;;7.80;4.65;;;;;;;7.71;45.59;93145.56;5025496;28;20025;-76
2023/03/09 04:21:31;;;;;;;8.75;4.93;;;;;;;7.74;45.44;93144.16;5024446;28;20041;-75
2023/03/09 04:23:56;;;;;;;6.72;4.97;;;;;;;7.95;45.61;93170.81;5027061;28;20076;-76
2023/03/09 04:26:22;;;;;;;11.45;4.85;;;;;;;8.01;45.40;93154.47;5004439;28;20029;-74
2023/03/09 04:28:47;;;;;;;8.00;4.30;;;;;;;8.07;45.07;93158.50;5028776;28;20582;-75
2023/03/09 04:31:13;;;;;;;11.88;4.65;;;;;;;7.97;44.93;93136.88;5024054;28;20026;-75
2023/03/09 04:33:42;;;;;;;7.00;3.80;;;;;;;7.84;45.49;93153.66;5020451;28;20068;-74
2023/03/09 04:36:09;;;;;;;11.02;4.55;;;;;;;7.73;46.04;93120.69;5018768;28;20037;-75
2023/03/09 04:38:35;;;;;;;9.45;3.65;;;;;;;7.98;45.75;93154.28;5020475;28;20087;-75
2023/03/09 04:41:00;;;;;;;7.38;4.75;;;;;;;8.02;45.66;93145.41;5018524;28;20029;-74
2023/03/09 04:43:25;;;;;;;9.18;4.43;;;;;;;7.87;45.49;93114.13;5019559;28;20049;-74
2023/03/09 04:45:51;;;;;;;6.80;3.97;;;;;;;7.36;45.80;93090.25;5017793;28;20037;-74
2023/03/09 04:48:16;;;;;;;6.63;3.90;;;;;;;7.85;46.16;93131.41;5021373;28;20117;-75
2023/03/09 04:50:44;;;;;;;7.18;4.10;;;;;;;7.77;45.88;93106.50;5018586;28;20038;-74
2023/03/09 04:53:09;;;;;;;7.85;4.35;;;;;;;7.65;45.85;93109.72;5023647;28;20029;-74
2023/03/09 04:55:36;;;;;;;8.50;3.65;;;;;;;7.78;45.62;93108.03;5018282;28;20046;-74
2023/03/09 04:58:02;;;;;;;7.18;4.00;;;;;;;7.35;46.96;93137.09;5020868;28;20120;-76
2023/03/09 05:00:28;;;;;;;6.18;4.00;;;;;;;7.71;45.85;93113.00;5018500;28;20170;-74
2023/03/09 05:02:54;;;;;;;8.07;4.20;;;;;;;7.68;46.34;93117.03;5027538;28;20049;-76
2023/03/09 05:05:19;;;;;;;4.60;3.72;;;;;;;7.89;45.93;93129.69;5024847;28;20037;-76
2023/03/09 05:07:45;;;;;;;5.95;4.07;;;;;;;7.85;45.62;93107.56;5029008;28;20052;-75
2023/03/09 05:10:11;;;;;;;8.52;3.97;;;;;;;8.02;45.73;93129.50;5027604;28;20045;-76
2023/03/09 05:12:36;;;;;;;10.43;4.85;;;;;;;8.11;45.40;93137.47;5029997;28;20171;-76
2023/03/09 05:15:03;;;;;;;5.95;4.40;;;;;;;7.73;46.83;93139.19;5025264;28;20061;-76
2023/03/09 05:17:28;;;;;;;7.90;5.22;;;;;;;7.84;46.20;93116.59;5029198;28;20025;-76
2023/03/09 05:19:54;;;;;;;13.98;6.63;;;;;;;7.81;46.12;93107.44;5024773;28;20032;-76
2023/03/09 05:22:20;;;;;;;7.82;4.90;;;;;;;8.07;46.18;93134.66;5027761;28;20046;-78
2023/03/09 05:24:45;;;;;;;10.05;5.22;;;;;;;7.96;46.34;93137.94;5008744;28;20055;-75
2023/03/09 05:27:12;;;;;;;14.00;9.13;;;;;;;7.93;45.93;93114.72;5028639;28;20037;-76
2023/03/09 05:29:38;;;;;;;28.52;13.98;;;;;;;8.01;46.23;93132.50;5024120;28;20045;-75
2023/03/09 05:32:04;;;;;;;25.40;10.82;;;;;;;7.96;45.95;93130.00;5027462;28;20037;-76
2023/03/09 05:34:29;;;;;;;16.75;9.50;;;;;;;7.86;46.19;93138.25;5027171;28;20053;-76
2023/03/09 05:36:55;;;;;;;9.80;7.15;;;;;;;7.65;46.87;93146.00;5026005;28;20390;-76
2023/03/09 05:39:21;;;;;;;11.35;7.32;;;;;;;7.67;46.62;93131.38;5030819;28;20030;-76
2023/03/09 05:41:46;;;;;;;13.90;7.22;;;;;;;7.82;46.67;93143.41;5025369;28;20053;-77
2023/03/09 05:44:12;;;;;;;14.13;8.27;;;;;;;7.40;47.06;93134.28;5029141;28;20029;-76
2023/03/09 05:46:37;;;;;;;12.95;8.77;;;;;;;7.76;46.77;93157.09;5025561;28;20061;-74
2023/03/09 05:49:03;;;;;;;17.67;9.02;;;;;;;8.06;46.92;93161.47;5014149;28;20034;-76
2023/03/09 05:51:29;;;;;;;15.13;9.35;;;;;;;7.60;46.67;93133.69;5028123;28;20102;-75
2023/03/09 05:53:54;;;;;;;20.00;9.30;;;;;;;7.80;46.15;93131.56;5015122;28;20624;-75
2023/03/09 05:56:19;;;;;;;15.05;8.23;;;;;;;7.86;46.35;93152.28;5028542;28;20026;-76
2023/03/09 05:58:48;;;;;;;18.67;8.25;;;;;;;7.44;47.70;93172.28;5029723;28;20155;-75
2023/03/09 06:01:22;;;;;;;15.43;7.47;;;;;;;7.15;47.84;93137.66;5029702;28;20045;-76
2023/03/09 06:03:48;;;;;;;15.98;8.10;;;;;;;7.12;48.57;93156.78;5029037;28;20107;-76
2023/03/09 06:06:15;;;;;;;14.18;8.43;;;;;;;7.37;47.44;93156.09;5014997;28;20056;-76
2023/03/09 06:08:40;;;;;;;28.75;10.60;;;;;;;7.49;47.49;93168.69;5027507;28;20048;-76
2023/03/09 06:11:07;;;;;;;13.85;8.07;;;;;;;7.45;47.32;93199.50;5027747;28;20029;-75
2023/03/09 06:13:32;;;;;;;16.85;7.72;;;;;;;7.01;48.16;93174.03;5025824;28;20041;-76
2023/03/09 06:15:57;;;;;;;15.77;7.32;;;;;;;7.17;48.78;93196.31;5023474;28;20041;-76
2023/03/09 06:18:23;;;;;;;9.27;5.70;;;;;;;7.11;48.05;93166.59;5005752;28;20042;-76
2023/03/09 06:20:49;;;;;;;11.48;6.40;;;;;;;6.75;48.97;93166.00;5006901;28;20125;-75
2023/03/09 06:23:14;;;;;;;7.47;5.65;;;;;;;6.86;48.74;93165.41;5019099;28;20061;-75
2023/03/09 06:25:40;;;;;;;18.05;6.38;;;;;;;6.56;49.74;93168.84;5000134;28;20080;-76
2023/03/09 06:28:06;;;;;;;12.77;5.88;;;;;;;6.21;50.45;93157.31;5019347;28;20147;-75
2023/03/09 06:30:31;;;;;;;8.43;5.25;;;;;;;6.22;50.29;93168.63;5022560;28;20037;-76
2023/03/09 06:32:57;;;;;;;9.80;4.65;;;;;;;6.20;50.76;93181.38;5021083;28;20048;-75
2023/03/09 06:35:23;;;;;;;10.90;4.90;;;;;;;6.16;50.50;93156.66;5014221;28;20140;-76
2023/03/09 06:37:49;;;;;;;13.27;5.43;;;;;;;6.00;50.42;93167.53;5015275;28;20470;-75
2023/03/09 06:40:15;;;;;;;9.68;4.75;;;;;;;6.32;50.95;93182.38;5017636;28;20037;-75
2023/03/09 06:42:41;;;;;;;8.75;4.70;;;;;;;6.41;50.17;93171.84;5017207;28;20060;-75
2023/03/09 06:45:07;;;;;;;10.40;5.00;;;;;;;6.26;50.12;93153.78;5019097;28;20683;-75
2023/03/09 06:47:33;;;;;;;10.40;5.28;;;;;;;5.94;50.19;93142.34;5018748;28;20085;-75
2023/03/09 06:49:58;;;;;;;9.52;5.15;;;;;;;6.09;50.56;93153.63;5017530;28;20477;-76
2023/03/09 06:52:25;;;;;;;8.65;5.50;;;;;;;6.14;50.76;93164.84;5015382;28;20128;-75
2023/03/09 06:54:51;;;;;;;9.02;5.10;;;;;;;5.78;51.68;93135.84;5016504;28;20045;-74
2023/03/09 06:57:17;;;;;;;13.48;6.22;;;;;;;6.03;51.02;93145.03;5015814;28;20045;-74
2023/03/09 06:59:42;;;;;;;8.38;4.45;;;;;;;6.44;50.48;93129.00;5004446;28;20041;-75
2023/03/09 07:02:11;;;;;;;17.65;6.45;;;;;;;5.76;52.07;93138.03;5024022;28;20033;-76
2023/03/09 07:04:36;;;;;;;9.52;4.95;;;;;;;6.47;51.28;93138.97;5022056;28;20390;-76
2023/03/09 07:07:01;;;;;;;19.30;5.55;;;;;;;7.29;49.44;93157.63;5021990;28;20038;-75
2023/03/09 07:09:27;;;;;;;25.40;6.68;;;;;;;6.39;50.81;93116.72;5022118;28;20038;-76
2023/03/09 07:11:53;;;;;;;23.42;6.43;;;;;;;6.86;50.40;93149.56;5017633;28;20347;-76
2023/03/09 07:14:19;;;;;;;25.63;6.28;;;;;;;6.48;51.20;93152.94;5018961;28;20044;-76
2023/03/09 07:16:54;;;;;;;20.75;6.55;;;;;;;6.32;51.39;93165.75;5017580;28;20057;-75
2023/03/09 07:19:20;;;;;;;;;;;;;;;6.51;50.70;93155.75;5019849;28;20361;-75
2023/03/09 07:21:45;;;;;;;19.27;6.38;;;;;;;6.55;51.35;93164.66;5019765;28;19921;-75
2023/03/09 07:24:11;;;;;;;16.92;5.95;;;;;;;7.14;49.89;93162.56;5019486;28;20052;-76
2023/03/09 07:26:36;;;;;;;9.77;5.53;;;;;;;7.10;49.25;93157.09;5011714;28;20307;-75
2023/03/09 07:29:02;;;;;;;13.57;5.70;;;;;;;7.60;48.75;93170.75;5016141;28;20029;-76
2023/03/09 07:31:29;;;;;;;20.75;7.45;;;;;;;7.07;49.07;93156.94;5017649;28;20036;-76
2023/03/09 07:33:58;;;;;;;13.80;5.90;;;;;;;7.41;49.30;93164.97;4997937;28;20045;-77
2023/03/09 07:36:24;;;;;;;17.13;5.65;;;;;;;7.07;49.30;93143.72;5012844;28;20094;-76
2023/03/09 07:38:50;;;;;;;15.18;6.07;;;;;;;6.82;49.33;93140.69;5015136;28;20588;-76
2023/03/09 07:41:16;;;;;;;17.83;6.45;;;;;;;7.09;49.48;93168.75;5021032;28;20025;-76
2023/03/09 07:43:43;;;;;;;11.25;7.30;;;;;;;7.10;49.66;93183.53;5022031;28;20048;-77
2023/03/09 07:46:15;;;;;;;15.27;6.90;;;;;;;7.24;49.18;93170.97;5019089;28;20271;-76
2023/03/09 07:48:44;;;;;;;16.10;8.00;;;;;;;7.21;49.35;93184.03;5026346;28;20037;-75
2023/03/09 07:51:10;;;;;;;15.90;6.97;;;;;;;7.40;48.46;93168.69;5023218;28;20067;-75
2023/03/09 07:53:39;;;;;;;13.55;7.28;;;;;;;7.36;48.30;93174.91;5020654;28;20052;-76
2023/03/09 07:56:06;;;;;;;17.55;7.55;;;;;;;7.33;48.50;93162.31;5010749;28;20021;-77
2023/03/09 07:58:32;;;;;;;16.77;7.55;;;;;;;7.35;48.81;93174.13;5023949;28;20033;-76
2023/03/09 08:00:59;;;;;;;17.13;8.65;;;;;;;7.28;49.20;93176.47;5018511;28;20045;-76
2023/03/09 08:03:25;;;;;;;20.60;9.18;;;;;;;6.82;49.41;93121.41;5021571;28;20030;-76
2023/03/09 08:05:54;;;;;;;19.38;9.43;;;;;;;7.19;49.19;93138.63;5012073;28;20038;-76
2023/03/09 08:08:23;;;;;;;15.90;9.35;;;;;;;7.38;49.13;93146.28;5028039;28;20026;-76
2023/03/09 08:10:52;;;;;;;22.40;9.73;;;;;;;7.64;48.12;93166.41;5021207;28;20021;-75
2023/03/09 08:13:18;;;;;;;17.80;10.00;;;;;;;7.33;48.60;93139.28;5026716;28;20061;-76
2023/03/09 08:15:44;;;;;;;18.17;9.27;;;;;;;7.43;48.52;93175.25;5024046;28;20056;-76
2023/03/09 08:18:11;;;;;;;17.30;10.27;;;;;;;7.17;48.81;93138.94;5021656;28;20034;-76
2023/03/09 08:20:36;;;;;;;20.88;10.77;;;;;;;7.27;48.84;93172.25;5021923;28;20088;-76
2023/03/09 08:23:05;;;;;;;18.80;9.50;;;;;;;7.42;48.76;93169.16;5020307;28;20025;-76
2023/03/09 08:25:31;;;;;;;20.25;10.32;;;;;;;7.70;48.38;93177.63;5020390;28;20046;-76
2023/03/09 08:27:57;;;;;;;26.52;10.95;;;;;;;7.71;48.45;93161.44;5018165;28;20041;-76
2023/03/09 08:30:23;;;;;;;27.98;10.68;;;;;;;7.87;48.18;93168.94;5016412;28;20038;-76
2023/03/09 08:32:49;;;;;;;20.83;12.25;;;;;;;7.77;48.23;93161.31;5017498;28;20597;-76
2023/03/09 08:35:16;;;;;;;19.75;11.32;;;;;;;7.97;48.01;93163.34;5012003;28;20041;-75
2023/03/09 08:37:41;;;;;;;16.48;10.18;;;;;;;7.88;48.34;93165.19;5020098;28;20029;-76
2023/03/09 08:40:08;;;;;;;18.48;8.82;;;;;;;7.98;48.11;93135.75;5017273;28;20057;-77
2023/03/09 08:42:33;;;;;;;15.18;8.65;;;;;;;8.09;47.31;93150.25;4991729;28;20041;-76
2023/03/09 08:44:59;;;;;;;19.48;8.43;;;;;;;7.99;47.98;93145.25;5001947;28;20506;-76
2023/03/09 08:47:25;;;;;;;17.75;8.85;;;;;;;7.99;47.64;93135.44;5009499;28;20101;-75
2023/03/09 08:49:51;;;;;;;17.75;8.63;;;;;;;8.11;47.32;93166.59;5018418;28;20018;-76
2023/03/09 08:52:16;;;;;;;15.68;7.35;;;;;;;8.09;47.80;93155.53;5018129;28;20034;-76
2023/03/09 08:54:42;;;;;;;16.65;7.13;;;;;;;8.45;46.89;93136.63;5003107;28;20038;-77
2023/03/09 08:57:08;;;;;;;19.10;8.07;;;;;;;8.26;47.10;93139.63;4998845;28;20045;-77
2023/03/09 08:59:34;;;;;;;16.15;6.15;;;;;;;8.47;47.65;93140.50;5002404;28;20116;-76
2023/03/09 09:02:00;;;;;;;13.02;6.55;;;;;;;8.58;48.07;93120.53;5012504;28;20022;-76
2023/03/09 09:04:26;;;;;;;12.10;6.93;;;;;;;8.62;47.53;93138.44;5014141;28;20561;-76
2023/03/09 09:06:51;;;;;;;21.75;8.27;;;;;;;8.56;46.86;93117.41;5014641;28;20114;-77
2023/03/09 09:09:16;;;;;;;13.63;6.35;;;;;;;8.63;47.04;93132.06;5008928;28;20295;-77
2023/03/09 09:11:42;;;;;;;9.65;5.85;;;;;;;8.48;47.02;93106.84;5020643;28;20113;-78
2023/03/09 09:14:07;;;;;;;28.95;6.45;;;;;;;8.57;47.01;93113.69;5026171;28;20026;-77
2023/03/09 09:16:33;;;;;;;8.63;5.53;;;;;;;9.01;46.47;93124.88;5028310;28;20050;-76
2023/03/09 09:18:58;;;;;;;16.08;6.13;;;;;;;8.87;46.15;93106.56;5023539;28;20045;-77
2023/03/09 09:21:24;;;;;;;11.07;6.00;;;;;;;9.23;45.86;93111.41;5024678;28;20034;-77
2023/03/09 09:23:49;;;;;;;10.73;5.15;;;;;;;9.15;46.91;93111.44;5022909;28;20982;-77
2023/03/09 09:26:16;;;;;;;10.65;5.22;;;;;;;9.80;45.98;93097.56;5027693;28;20035;-76
2023/03/09 09:28:42;;;;;;;20.25;6.22;;;;;;;9.16;46.12;93097.84;5027538;28;20030;-76
2023/03/09 09:31:15;;;;;;;14.93;6.20;;;;;;;8.82;46.76;93098.00;5024863;28;20089;-77
2023/03/09 09:33:40;;;;;;;14.38;5.82;;;;;;;9.02;46.60;93071.53;5024257;28;20033;-75
2023/03/09 09:36:11;;;;;;;18.65;6.28;;;;;;;9.11;45.60;93092.72;5008042;28;20597;-77
2023/03/09 09:38:37;;;;;;;14.25;5.50;;;;;;;9.22;45.78;93079.88;5022073;28;20040;-76
2023/03/09 09:41:18;;;;;;;10.35;5.40;;;;;;;9.43;45.89;93094.72;5025732;28;20041;-76
2023/03/09 09:43:48;;;;;;;9.95;5.50;;;;;;;9.61;45.08;93092.72;5022031;28;20077;-76
2023/03/09 09:46:16;;;;;;;10.13;4.95;;;;;;;9.32;45.74;93069.66;5020157;28;20508;-74
2023/03/09 09:48:44;;;;;;;9.13;3.65;;;;;;;9.26;45.86;93081.56;5009102;28;20065;-77
2023/03/09 09:51:10;;;;;;;10.43;3.75;;;;;;;9.86;45.99;93099.72;5027019;28;20055;-75
2023/03/09 09:53:54;;;;;;;7.82;3.85;;;;;;;9.68;45.21;93065.66;5022777;28;20501;-76
2023/03/09 09:56:26;;;;;;;10.93;4.18;;;;;;;10.29;45.23;93080.72;5023601;28;20508;-77
2023/03/09 09:58:52;;;;;;;12.32;4.07;;;;;;;10.45;43.48;93086.22;5025896;28;20026;-76
2023/03/09 10:01:28;;;;;;;6.70;3.80;;;;;;;10.64;44.49;93075.84;5020518;28;20853;-76
2023/03/09 10:04:01;;;;;;;8.13;2.42;;;;;;;10.86;44.31;93068.53;5021634;28;20048;-76
2023/03/09 10:06:27;;;;;;;1.50;1.00;;;;;;;11.12;44.41;93072.41;5017133;28;20034;-77
2023/03/09 10:09:00;;;;;;;1.90;0.90;;;;;;;11.34;43.57;93057.09;5024855;28;20030;-76
2023/03/09 10:11:33;;;;;;;2.30;1.20;;;;;;;11.53;43.08;93036.78;5023797;28;20836;-76
2023/03/09 10:14:07;;;;;;;1.77;0.88;;;;;;;11.65;42.80;93033.28;5016641;28;20028;-76
2023/03/09 10:16:59;;;;;;;2.20;1.00;;;;;;;11.87;43.11;93024.03;5025127;28;20097;-75
2023/03/09 10:19:43;;;;;;;3.13;1.15;;;;;;;12.04;42.33;93018.38;5002922;28;20059;-76
2023/03/09 10:22:11;;;;;;;2.85;1.00;;;;;;;12.18;42.85;93008.09;5024511;28;20037;-76
2023/03/09 10:24:52;;;;;;;3.55;0.80;;;;;;;12.47;41.20;92996.22;5019704;28;20107;-76
2023/03/09 10:27:45;;;;;;;1.92;1.15;;;;;;;12.40;41.55;93004.84;5018998;28;20041;-77
2023/03/09 10:30:17;;;;;;;1.17;0.80;;;;;;;12.24;41.53;92974.72;5018650;28;20068;-77
2023/03/09 10:32:52;;;;;;;5.28;1.17;;;;;;;12.29;40.96;92971.03;5016958;28;20050;-76
2023/03/09 10:35:32;;;;;;;1.98;1.13;;;;;;;12.36;42.05;93004.00;5017564;28;20037;-75
2023/03/09 10:37:59;;;;;;;1.38;1.00;;;;;;;12.53;41.47;93002.09;5006910;28;20638;-76
2023/03/09 10:40:41;;;;;;;3.50;0.90;;;;;;;12.44;41.09;92975.59;5008216;28;20390;-77
2023/03/09 10:43:17;;;;;;;1.05;0.93;;;;;;;12.48;40.64;92979.91;5004674;28;20117;-76
2023/03/09 10:45:42;;;;;;;3.38;1.23;;;;;;;12.65;41.10;92981.50;4981823;28;20766;-75
2023/03/09 10:48:19;;;;;;;1.30;0.85;;;;;;;12.62;40.89;92963.47;5004383;28;20040;-74
2023/03/09 10:50:59;;;;;;;3.97;1.67;;;;;;;12.99;40.77;92976.53;4990392;28;20038;-74
2023/03/09 10:53:31;;;;;;;1.02;0.93;;;;;;;13.22;40.15;92977.41;5005871;28;20021;-74
2023/03/09 10:56:13;;;;;;;1.13;0.90;;;;;;;13.29;39.85;92970.34;5008481;28;20044;-75
2023/03/09 10:58:38;;;;;;;3.03;1.13;;;;;;;13.39;39.76;92958.34;5005177;28;20107;-75
2023/03/09 11:01:19;;;;;;;3.20;1.38;;;;;;;13.35;39.74;92936.09;4993948;28;20049;-75
2023/03/09 11:03:45;;;;;;;3.35;1.35;;;;;;;13.46;39.22;92963.03;5016737;28;20057;-75
2023/03/09 11:06:22;;;;;;;3.90;1.02;;;;;;;13.38;39.58;92956.00;5018619;28;20069;-75
2023/03/09 11:09:03;;;;;;;2.47;1.30;;;;;;;13.38;39.17;92951.44;5017155;28;20041;-75
2023/03/09 11:11:29;;;;;;;1.80;1.33;;;;;;;13.51;39.70;92944.81;5021293;28;20036;-75
2023/03/09 11:13:55;;;;;;;2.08;1.30;;;;;;;13.60;38.88;92929.38;5019493;28;20588;-75
2023/03/09 11:16:24;;;;;;;1.65;1.10;;;;;;;13.86;38.53;92928.72;5003540;28;20045;-75
2023/03/09 11:19:13;;;;;;;2.50;1.00;;;;;;;14.07;38.78;92939.03;5022149;28;20049;-75
2023/03/09 11:22:05;;;;;;;2.33;1.20;;;;;;;14.05;38.19;92915.31;5020904;28;20539;-74
2023/03/09 11:24:42;;;;;;;1.13;1.00;;;;;;;13.88;37.76;92904.34;5020560;28;20084;-73
2023/03/09 11:27:32;;;;;;;2.58;1.38;;;;;;;14.12;38.14;92920.03;5021951;28;20165;-75
2023/03/09 11:30:16;;;;;;;1.95;1.00;;;;;;;14.05;37.61;92915.31;5020305;28;20053;-74
2023/03/09 11:32:42;;;;;;;2.37;1.10;;;;;;;13.96;37.62;92906.78;5020819;28;20045;-76
2023/03/09 11:35:14;;;;;;;2.80;1.00;;;;;;;14.01;37.88;92897.69;5024564;28;20025;-74
2023/03/09 11:37:39;;;;;;;2.15;0.80;;;;;;;14.18;37.88;92897.97;5022152;28;20049;-74
2023/03/09 11:40:13;;;;;;;1.15;1.05;;;;;;;14.30;36.87;92888.22;5022411;28;20069;-76